Aérodrome :
LOGIN :

S'inscrire | Disclaimer

   EN    FR    IT 

 










Légende :    VFR   VFR Marginal   IFR   IFR Intensif   IFR Très Intensif
Visi : 
Plafond : 
>= 8 km
>= 3000ft
5 à 8 km
1000 à 3000 ft
1500m à 5 km
500 à 1000 ft
800 à 1500m
200 à 500 ft
< 800m
< 200 ft
Symboles :   Orages  Brouillard  Fortes neiges  Fortes précipitations  Vent > 20 kt
SIGMETs :   Divers  Orages  Givrage  Turbulence  Onde Orograph.  Cendres Volcan.







- Altitude de l'aérodrome : 37 ft


EGOW - Woodvale

DERNIER METAR :
  • 280950Z 06010KT 9999 -RA FEW008 SCT012 BKN035 13/12 Q1001 GRN

METARs EXPIRÉS :
  • 280850Z 06010KT 9999 RA FEW006 SCT020 BKN035 13/12 Q1001 WHT
  • 280750Z 05008KT 8000 -RA FEW008 SCT010 BKN035 13/12 Q1001 GRN

TAF TAF EGOW
Valide du 28 à 09h jusqu'au 28 à 18h UTC


280750Z 2809/2818 07007KT 9999 FEW012 BKN025
TEMPO 2809/2818 SCT012
PROB30
TEMPO 2809/2812 7000 -RA
TEMPO 2812/2818 4000 RA
Pas de NOTAMs connus pour ce terrain.
1 SIGMET publié pour la FIR London (EGTT) :
 
Orages noyés dans la masse
EGTT SIGMET 02 VALID 280805/281100 EGRR
EGTT LONDON FIR EMBD TS FCST WI N5234 E00252 - N5306 E00020 - N5408 E00111 - N5409 E00414 - N5234 E00252 TOP FL370 MOV NNW 25KT NC=



MET'MAP, la Météo Aéronautique d'un coup d'oeil ! - Copyright ORBIFLY Décembre 2007 - Disclaimer

ORBIFLY MET'MAP TEAM :

Programmation & Développement : Alexandra Zaïnal
Conception & Développement : Baudouin d'Aumeries
Co-Programmation & Développement : Marc-Olivier Méhu
Soutien technique & logistique : Manuel Goepfert

Contact : metmap@orbifly.com




SOURCES & CREDITS :

   NOAA